sensor_id;sensor_type;location;lat;lon;timestamp;pressure;altitude;pressure_sealevel;temperature
42197;BMP280;27866;48.146;17.098;2024-03-08T00:02:49;100016.69;;;10.90
42197;BMP280;27866;48.146;17.098;2024-03-08T00:07:02;100014.00;;;10.91
42197;BMP280;27866;48.146;17.098;2024-03-08T00:11:13;100008.72;;;11.05
42197;BMP280;27866;48.146;17.098;2024-03-08T00:15:25;100012.13;;;11.05
42197;BMP280;27866;48.146;17.098;2024-03-08T00:19:36;100010.38;;;11.06
42197;BMP280;27866;48.146;17.098;2024-03-08T00:23:48;100007.28;;;11.01
42197;BMP280;27866;48.146;17.098;2024-03-08T00:27:59;100015.53;;;10.94
42197;BMP280;27866;48.146;17.098;2024-03-08T00:32:11;100009.44;;;10.95
42197;BMP280;27866;48.146;17.098;2024-03-08T00:36:23;100010.16;;;10.97
42197;BMP280;27866;48.146;17.098;2024-03-08T00:40:36;100005.09;;;10.95
42197;BMP280;27866;48.146;17.098;2024-03-08T00:44:47;100004.69;;;11.01
42197;BMP280;27866;48.146;17.098;2024-03-08T00:49:02;100003.19;;;10.85
42197;BMP280;27866;48.146;17.098;2024-03-08T00:53:13;100001.31;;;10.87
42197;BMP280;27866;48.146;17.098;2024-03-08T00:57:25;99991.59;;;10.90
42197;BMP280;27866;48.146;17.098;2024-03-08T01:01:36;99997.31;;;10.95
42197;BMP280;27866;48.146;17.098;2024-03-08T01:05:48;99996.38;;;10.96
42197;BMP280;27866;48.146;17.098;2024-03-08T01:09:59;99986.22;;;10.93
42197;BMP280;27866;48.146;17.098;2024-03-08T01:14:12;99990.78;;;10.90
42197;BMP280;27866;48.146;17.098;2024-03-08T01:18:23;99982.34;;;10.86
42197;BMP280;27866;48.146;17.098;2024-03-08T01:22:35;99987.84;;;10.82
42197;BMP280;27866;48.146;17.098;2024-03-08T01:26:46;99984.13;;;10.86
42197;BMP280;27866;48.146;17.098;2024-03-08T01:30:58;99982.03;;;10.79
42197;BMP280;27866;48.146;17.098;2024-03-08T01:35:10;99980.28;;;10.79
42197;BMP280;27866;48.146;17.098;2024-03-08T01:39:22;99976.44;;;10.85
42197;BMP280;27866;48.146;17.098;2024-03-08T01:43:33;99982.56;;;10.84
42197;BMP280;27866;48.146;17.098;2024-03-08T01:47:45;99978.97;;;10.86
42197;BMP280;27866;48.146;17.098;2024-03-08T01:51:59;99969.09;;;10.91
42197;BMP280;27866;48.146;17.098;2024-03-08T01:56:12;99975.53;;;10.86
42197;BMP280;27866;48.146;17.098;2024-03-08T02:00:25;99976.25;;;10.87
42197;BMP280;27866;48.146;17.098;2024-03-08T02:04:38;99967.53;;;10.88
42197;BMP280;27866;48.146;17.098;2024-03-08T02:08:50;99971.81;;;10.89
42197;BMP280;27866;48.146;17.098;2024-03-08T02:13:04;99976.38;;;10.86
42197;BMP280;27866;48.146;17.098;2024-03-08T02:17:16;99973.22;;;10.81
42197;BMP280;27866;48.146;17.098;2024-03-08T02:21:28;99980.59;;;10.87
42197;BMP280;27866;48.146;17.098;2024-03-08T02:25:41;99976.78;;;10.92
42197;BMP280;27866;48.146;17.098;2024-03-08T02:29:55;99974.06;;;10.94
42197;BMP280;27866;48.146;17.098;2024-03-08T02:34:07;99968.09;;;10.93
42197;BMP280;27866;48.146;17.098;2024-03-08T02:38:20;99968.69;;;10.97
42197;BMP280;27866;48.146;17.098;2024-03-08T02:42:32;99965.38;;;10.95
42197;BMP280;27866;48.146;17.098;2024-03-08T02:46:44;99977.16;;;10.86
42197;BMP280;27866;48.146;17.098;2024-03-08T02:50:56;99979.69;;;10.88
42197;BMP280;27866;48.146;17.098;2024-03-08T02:55:08;99967.53;;;10.88
42197;BMP280;27866;48.146;17.098;2024-03-08T02:59:21;99970.13;;;10.88
42197;BMP280;27866;48.146;17.098;2024-03-08T03:03:33;99973.06;;;10.84
42197;BMP280;27866;48.146;17.098;2024-03-08T03:07:45;99966.72;;;10.88
42197;BMP280;27866;48.146;17.098;2024-03-08T03:11:56;99972.31;;;10.82
42197;BMP280;27866;48.146;17.098;2024-03-08T03:16:08;99968.66;;;10.85
42197;BMP280;27866;48.146;17.098;2024-03-08T03:20:21;99967.88;;;10.84
42197;BMP280;27866;48.146;17.098;2024-03-08T03:24:38;99971.38;;;10.83
42197;BMP280;27866;48.146;17.098;2024-03-08T03:28:54;99972.38;;;10.81
42197;BMP280;27866;48.146;17.098;2024-03-08T03:33:05;99968.59;;;10.86
42197;BMP280;27866;48.146;17.098;2024-03-08T03:37:20;99965.69;;;10.90
42197;BMP280;27866;48.146;17.098;2024-03-08T03:41:32;99973.38;;;10.92
42197;BMP280;27866;48.146;17.098;2024-03-08T03:45:43;99963.94;;;10.91
42197;BMP280;27866;48.146;17.098;2024-03-08T03:49:55;99962.03;;;10.81
42197;BMP280;27866;48.146;17.098;2024-03-08T03:54:07;99958.53;;;10.82
42197;BMP280;27866;48.146;17.098;2024-03-08T03:58:18;99959.88;;;10.87
42197;BMP280;27866;48.146;17.098;2024-03-08T04:02:33;99959.59;;;10.91
42197;BMP280;27866;48.146;17.098;2024-03-08T04:06:45;99958.00;;;10.89
42197;BMP280;27866;48.146;17.098;2024-03-08T04:10:56;99960.41;;;10.92
42197;BMP280;27866;48.146;17.098;2024-03-08T04:15:09;99958.84;;;10.89
42197;BMP280;27866;48.146;17.098;2024-03-08T04:19:22;99954.91;;;10.96
42197;BMP280;27866;48.146;17.098;2024-03-08T04:23:37;99961.03;;;11.07
42197;BMP280;27866;48.146;17.098;2024-03-08T04:27:49;99958.44;;;11.07
42197;BMP280;27866;48.146;17.098;2024-03-08T04:32:03;99954.94;;;11.08
42197;BMP280;27866;48.146;17.098;2024-03-08T04:36:15;99964.13;;;11.00
42197;BMP280;27866;48.146;17.098;2024-03-08T04:40:26;99964.25;;;10.99
42197;BMP280;27866;48.146;17.098;2024-03-08T04:44:38;99971.28;;;10.97
42197;BMP280;27866;48.146;17.098;2024-03-08T04:48:49;99972.34;;;11.06
42197;BMP280;27866;48.146;17.098;2024-03-08T04:53:01;99960.72;;;11.12
42197;BMP280;27866;48.146;17.098;2024-03-08T04:57:12;99972.78;;;11.13
42197;BMP280;27866;48.146;17.098;2024-03-08T05:01:24;99979.09;;;11.09
42197;BMP280;27866;48.146;17.098;2024-03-08T05:05:35;99980.63;;;10.99
42197;BMP280;27866;48.146;17.098;2024-03-08T05:09:47;99983.13;;;11.00
42197;BMP280;27866;48.146;17.098;2024-03-08T05:14:02;99983.63;;;11.05
42197;BMP280;27866;48.146;17.098;2024-03-08T05:18:16;99989.75;;;11.04
42197;BMP280;27866;48.146;17.098;2024-03-08T05:22:27;99981.03;;;11.05
42197;BMP280;27866;48.146;17.098;2024-03-08T05:26:39;99981.03;;;11.05
42197;BMP280;27866;48.146;17.098;2024-03-08T05:30:51;99988.09;;;11.15
42197;BMP280;27866;48.146;17.098;2024-03-08T05:35:02;99985.41;;;11.17
42197;BMP280;27866;48.146;17.098;2024-03-08T05:39:19;99985.09;;;11.09
42197;BMP280;27866;48.146;17.098;2024-03-08T05:43:33;99992.34;;;11.16
42197;BMP280;27866;48.146;17.098;2024-03-08T05:47:45;99983.16;;;11.25
42197;BMP280;27866;48.146;17.098;2024-03-08T05:51:57;99981.09;;;11.30
42197;BMP280;27866;48.146;17.098;2024-03-08T05:56:08;99976.44;;;11.34
42197;BMP280;27866;48.146;17.098;2024-03-08T06:00:20;99975.72;;;11.44
42197;BMP280;27866;48.146;17.098;2024-03-08T06:04:34;99980.66;;;11.47
42197;BMP280;27866;48.146;17.098;2024-03-08T06:08:45;99976.13;;;11.27
42197;BMP280;27866;48.146;17.098;2024-03-08T06:12:58;99975.16;;;11.15
42197;BMP280;27866;48.146;17.098;2024-03-08T06:17:11;99978.94;;;11.24
42197;BMP280;27866;48.146;17.098;2024-03-08T06:21:23;99985.56;;;11.28
42197;BMP280;27866;48.146;17.098;2024-03-08T06:25:37;99986.69;;;11.24
42197;BMP280;27866;48.146;17.098;2024-03-08T06:29:49;99989.28;;;11.24
42197;BMP280;27866;48.146;17.098;2024-03-08T06:34:00;99996.75;;;11.40
42197;BMP280;27866;48.146;17.098;2024-03-08T06:38:12;100001.31;;;11.49
42197;BMP280;27866;48.146;17.098;2024-03-08T06:42:30;99995.50;;;11.58
42197;BMP280;27866;48.146;17.098;2024-03-08T06:46:46;99996.97;;;11.61
42197;BMP280;27866;48.146;17.098;2024-03-08T06:50:58;100001.41;;;11.59
42197;BMP280;27866;48.146;17.098;2024-03-08T06:55:09;100004.75;;;11.61
42197;BMP280;27866;48.146;17.098;2024-03-08T06:59:24;100006.72;;;11.46
42197;BMP280;27866;48.146;17.098;2024-03-08T07:03:35;99999.97;;;11.56
42197;BMP280;27866;48.146;17.098;2024-03-08T07:07:47;99998.09;;;11.58
42197;BMP280;27866;48.146;17.098;2024-03-08T07:12:02;100002.16;;;11.61
42197;BMP280;27866;48.146;17.098;2024-03-08T07:16:14;100006.91;;;11.55
42197;BMP280;27866;48.146;17.098;2024-03-08T07:20:25;100007.03;;;11.54
42197;BMP280;27866;48.146;17.098;2024-03-08T07:24:37;100007.44;;;11.48
42197;BMP280;27866;48.146;17.098;2024-03-08T07:28:48;99999.56;;;11.61
42197;BMP280;27866;48.146;17.098;2024-03-08T07:33:00;100009.94;;;11.61
42197;BMP280;27866;48.146;17.098;2024-03-08T07:37:13;100011.16;;;11.68
42197;BMP280;27866;48.146;17.098;2024-03-08T07:41:25;100010.50;;;11.77
42197;BMP280;27866;48.146;17.098;2024-03-08T07:45:40;100010.72;;;11.74
42197;BMP280;27866;48.146;17.098;2024-03-08T07:49:51;100015.19;;;11.84
42197;BMP280;27866;48.146;17.098;2024-03-08T07:54:03;100009.88;;;11.86
42197;BMP280;27866;48.146;17.098;2024-03-08T07:58:20;100019.31;;;11.87
42197;BMP280;27866;48.146;17.098;2024-03-08T08:02:32;100015.81;;;11.88
42197;BMP280;27866;48.146;17.098;2024-03-08T08:06:43;100009.78;;;11.87
42197;BMP280;27866;48.146;17.098;2024-03-08T08:10:55;100014.53;;;11.93
42197;BMP280;27866;48.146;17.098;2024-03-08T08:15:06;100023.06;;;11.95
42197;BMP280;27866;48.146;17.098;2024-03-08T08:19:18;100019.09;;;12.02
42197;BMP280;27866;48.146;17.098;2024-03-08T08:23:30;100022.31;;;12.05
42197;BMP280;27866;48.146;17.098;2024-03-08T08:27:42;100020.34;;;12.08
42197;BMP280;27866;48.146;17.098;2024-03-08T08:31:54;100016.06;;;12.07
42197;BMP280;27866;48.146;17.098;2024-03-08T08:36:06;100015.97;;;12.09
42197;BMP280;27866;48.146;17.098;2024-03-08T08:40:17;100017.31;;;12.02
42197;BMP280;27866;48.146;17.098;2024-03-08T08:44:30;100012.38;;;11.99
42197;BMP280;27866;48.146;17.098;2024-03-08T08:48:42;100022.13;;;11.96
42197;BMP280;27866;48.146;17.098;2024-03-08T08:52:56;100012.25;;;12.01
42197;BMP280;27866;48.146;17.098;2024-03-08T08:57:08;100017.31;;;12.02
42197;BMP280;27866;48.146;17.098;2024-03-08T09:01:20;100018.47;;;11.98
42197;BMP280;27866;48.146;17.098;2024-03-08T09:05:32;100016.41;;;12.03
42197;BMP280;27866;48.146;17.098;2024-03-08T09:09:43;100013.38;;;12.09
42197;BMP280;27866;48.146;17.098;2024-03-08T09:13:55;100022.56;;;12.25
42197;BMP280;27866;48.146;17.098;2024-03-08T09:18:07;100016.81;;;12.32
42197;BMP280;27866;48.146;17.098;2024-03-08T09:22:19;100018.06;;;12.39
42197;BMP280;27866;48.146;17.098;2024-03-08T09:26:30;100013.34;;;12.44
42197;BMP280;27866;48.146;17.098;2024-03-08T09:30:43;100000.97;;;12.47
42197;BMP280;27866;48.146;17.098;2024-03-08T09:34:56;100004.91;;;12.52
42197;BMP280;27866;48.146;17.098;2024-03-08T09:39:07;100009.00;;;12.56
42197;BMP280;27866;48.146;17.098;2024-03-08T09:43:19;100013.13;;;12.59
42197;BMP280;27866;48.146;17.098;2024-03-08T09:47:31;100006.63;;;12.64
42197;BMP280;27866;48.146;17.098;2024-03-08T09:51:45;100005.28;;;12.71
42197;BMP280;27866;48.146;17.098;2024-03-08T09:55:57;100002.50;;;12.84
42197;BMP280;27866;48.146;17.098;2024-03-08T10:00:09;99996.75;;;13.02
42197;BMP280;27866;48.146;17.098;2024-03-08T10:04:35;100000.00;;;13.16
42197;BMP280;27866;48.146;17.098;2024-03-08T10:08:46;100007.34;;;13.32
42197;BMP280;27866;48.146;17.098;2024-03-08T10:12:58;100005.03;;;13.62
42197;BMP280;27866;48.146;17.098;2024-03-08T10:17:11;100003.31;;;13.94
42197;BMP280;27866;48.146;17.098;2024-03-08T10:21:22;99999.38;;;14.10
42197;BMP280;27866;48.146;17.098;2024-03-08T10:25:35;99998.41;;;14.21
42197;BMP280;27866;48.146;17.098;2024-03-08T10:29:48;99998.03;;;14.36
42197;BMP280;27866;48.146;17.098;2024-03-08T10:33:59;100002.13;;;14.60
42197;BMP280;27866;48.146;17.098;2024-03-08T10:38:14;99986.56;;;14.69
42197;BMP280;27866;48.146;17.098;2024-03-08T10:42:29;99991.41;;;14.84
42197;BMP280;27866;48.146;17.098;2024-03-08T10:51:06;99991.97;;;14.88
42197;BMP280;27866;48.146;17.098;2024-03-08T10:55:23;99990.19;;;15.08
42197;BMP280;27866;48.146;17.098;2024-03-08T10:59:35;99982.41;;;15.28
42197;BMP280;27866;48.146;17.098;2024-03-08T11:03:48;99984.59;;;15.32
42197;BMP280;27866;48.146;17.098;2024-03-08T11:08:03;99983.09;;;15.30
42197;BMP280;27866;48.146;17.098;2024-03-08T11:12:26;99980.28;;;15.02
42197;BMP280;27866;48.146;17.098;2024-03-08T11:16:40;99976.16;;;14.59
42197;BMP280;27866;48.146;17.098;2024-03-08T11:20:55;99976.13;;;14.39
42197;BMP280;27866;48.146;17.098;2024-03-08T11:25:09;99978.19;;;14.55
42197;BMP280;27866;48.146;17.098;2024-03-08T11:33:48;99979.09;;;14.34
42197;BMP280;27866;48.146;17.098;2024-03-08T11:38:00;99974.84;;;14.34
42197;BMP280;27866;48.146;17.098;2024-03-08T11:42:12;99957.19;;;14.37
42197;BMP280;27866;48.146;17.098;2024-03-08T11:46:25;99961.50;;;14.58
42197;BMP280;27866;48.146;17.098;2024-03-08T11:50:39;99950.00;;;14.60
42197;BMP280;27866;48.146;17.098;2024-03-08T11:54:55;99943.13;;;14.90
42197;BMP280;27866;48.146;17.098;2024-03-08T11:59:11;99944.03;;;14.99
42197;BMP280;27866;48.146;17.098;2024-03-08T12:03:26;99945.72;;;15.09
42197;BMP280;27866;48.146;17.098;2024-03-08T12:07:37;99945.97;;;15.26
42197;BMP280;27866;48.146;17.098;2024-03-08T12:11:49;99938.97;;;15.47
42197;BMP280;27866;48.146;17.098;2024-03-08T12:16:05;99937.41;;;15.64
42197;BMP280;27866;48.146;17.098;2024-03-08T12:20:27;99937.78;;;15.60
42197;BMP280;27866;48.146;17.098;2024-03-08T12:24:42;99929.09;;;15.50
42197;BMP280;27866;48.146;17.098;2024-03-08T12:29:00;99927.66;;;15.17
42197;BMP280;27866;48.146;17.098;2024-03-08T12:33:25;99924.31;;;14.76
42197;BMP280;27866;48.146;17.098;2024-03-08T12:37:36;99933.19;;;14.53
42197;BMP280;27866;48.146;17.098;2024-03-08T12:41:49;99937.47;;;14.54
42197;BMP280;27866;48.146;17.098;2024-03-08T12:46:04;99922.56;;;14.46
42197;BMP280;27866;48.146;17.098;2024-03-08T12:50:17;99927.75;;;14.56
42197;BMP280;27866;48.146;17.098;2024-03-08T12:54:28;99909.88;;;14.72
42197;BMP280;27866;48.146;17.098;2024-03-08T12:58:42;99923.41;;;14.66
42197;BMP280;27866;48.146;17.098;2024-03-08T13:02:54;99918.81;;;14.39
42197;BMP280;27866;48.146;17.098;2024-03-08T13:07:06;99918.63;;;14.51
42197;BMP280;27866;48.146;17.098;2024-03-08T13:11:18;99906.47;;;14.71
42197;BMP280;27866;48.146;17.098;2024-03-08T13:15:30;99904.88;;;14.79
42197;BMP280;27866;48.146;17.098;2024-03-08T13:19:42;99905.56;;;14.92
42197;BMP280;27866;48.146;17.098;2024-03-08T13:23:53;99901.28;;;14.91
42197;BMP280;27866;48.146;17.098;2024-03-08T13:28:06;99903.22;;;14.78
42197;BMP280;27866;48.146;17.098;2024-03-08T13:32:18;99905.09;;;14.57
42197;BMP280;27866;48.146;17.098;2024-03-08T13:36:31;99898.59;;;14.51
42197;BMP280;27866;48.146;17.098;2024-03-08T13:40:50;99904.09;;;14.49
42197;BMP280;27866;48.146;17.098;2024-03-08T13:45:03;99898.38;;;14.24
42197;BMP280;27866;48.146;17.098;2024-03-08T13:49:15;99887.78;;;14.36
42197;BMP280;27866;48.146;17.098;2024-03-08T13:53:27;99884.66;;;14.52
42197;BMP280;27866;48.146;17.098;2024-03-08T13:57:39;99880.22;;;14.83
42197;BMP280;27866;48.146;17.098;2024-03-08T14:01:50;99871.41;;;15.24
42197;BMP280;27866;48.146;17.098;2024-03-08T14:06:02;99865.94;;;16.03
42197;BMP280;27866;48.146;17.098;2024-03-08T14:10:15;99855.78;;;16.92
42197;BMP280;27866;48.146;17.098;2024-03-08T14:14:27;99857.44;;;16.38
42197;BMP280;27866;48.146;17.098;2024-03-08T14:18:38;99851.91;;;16.04
42197;BMP280;27866;48.146;17.098;2024-03-08T14:22:50;99846.44;;;16.07
42197;BMP280;27866;48.146;17.098;2024-03-08T14:27:03;99842.53;;;15.93
42197;BMP280;27866;48.146;17.098;2024-03-08T14:31:14;99841.44;;;15.86
42197;BMP280;27866;48.146;17.098;2024-03-08T14:35:29;99848.13;;;15.79
42197;BMP280;27866;48.146;17.098;2024-03-08T14:39:41;99846.47;;;15.78
42197;BMP280;27866;48.146;17.098;2024-03-08T14:43:53;99845.72;;;15.49
42197;BMP280;27866;48.146;17.098;2024-03-08T14:48:05;99839.94;;;15.16
42197;BMP280;27866;48.146;17.098;2024-03-08T14:52:16;99840.34;;;14.72
42197;BMP280;27866;48.146;17.098;2024-03-08T14:56:40;99844.66;;;14.63
42197;BMP280;27866;48.146;17.098;2024-03-08T15:00:55;99829.97;;;14.62
42197;BMP280;27866;48.146;17.098;2024-03-08T15:05:07;99822.84;;;14.44
42197;BMP280;27866;48.146;17.098;2024-03-08T15:09:25;99827.75;;;14.37
42197;BMP280;27866;48.146;17.098;2024-03-08T15:13:36;99825.31;;;14.45
42197;BMP280;27866;48.146;17.098;2024-03-08T15:17:52;99820.91;;;14.56
42197;BMP280;27866;48.146;17.098;2024-03-08T15:22:05;99832.91;;;14.48
42197;BMP280;27866;48.146;17.098;2024-03-08T15:26:17;99831.19;;;14.58
42197;BMP280;27866;48.146;17.098;2024-03-08T15:30:29;99827.75;;;14.57
42197;BMP280;27866;48.146;17.098;2024-03-08T15:34:43;99823.94;;;14.61
42197;BMP280;27866;48.146;17.098;2024-03-08T15:38:54;99819.75;;;14.69
42197;BMP280;27866;48.146;17.098;2024-03-08T15:43:06;99818.97;;;14.78
42197;BMP280;27866;48.146;17.098;2024-03-08T15:47:17;99822.03;;;14.63
42197;BMP280;27866;48.146;17.098;2024-03-08T15:51:30;99822.47;;;14.48
42197;BMP280;27866;48.146;17.098;2024-03-08T15:55:42;99815.25;;;14.32
42197;BMP280;27866;48.146;17.098;2024-03-08T15:59:55;99813.28;;;14.14
42197;BMP280;27866;48.146;17.098;2024-03-08T16:04:11;99808.34;;;13.80
42197;BMP280;27866;48.146;17.098;2024-03-08T16:08:22;99812.00;;;13.57
42197;BMP280;27866;48.146;17.098;2024-03-08T16:12:37;99815.59;;;13.45
42197;BMP280;27866;48.146;17.098;2024-03-08T16:16:50;99814.78;;;13.34
42197;BMP280;27866;48.146;17.098;2024-03-08T16:21:03;99805.69;;;13.39
42197;BMP280;27866;48.146;17.098;2024-03-08T16:25:14;99810.66;;;13.32
42197;BMP280;27866;48.146;17.098;2024-03-08T16:29:30;99808.78;;;13.12
42197;BMP280;27866;48.146;17.098;2024-03-08T16:33:43;99817.03;;;13.17
42197;BMP280;27866;48.146;17.098;2024-03-08T16:37:55;99817.84;;;13.28
42197;BMP280;27866;48.146;17.098;2024-03-08T16:42:07;99821.78;;;13.33
42197;BMP280;27866;48.146;17.098;2024-03-08T16:46:19;99811.47;;;13.32
42197;BMP280;27866;48.146;17.098;2024-03-08T16:50:32;99808.88;;;13.32
42197;BMP280;27866;48.146;17.098;2024-03-08T16:54:45;99807.94;;;13.33
42197;BMP280;27866;48.146;17.098;2024-03-08T16:58:56;99810.66;;;13.32
42197;BMP280;27866;48.146;17.098;2024-03-08T17:03:08;99810.28;;;13.36
42197;BMP280;27866;48.146;17.098;2024-03-08T17:07:20;99810.19;;;13.27
42197;BMP280;27866;48.146;17.098;2024-03-08T17:11:33;99804.88;;;13.07
42197;BMP280;27866;48.146;17.098;2024-03-08T17:15:45;99809.97;;;13.08
42197;BMP280;27866;48.146;17.098;2024-03-08T17:19:59;99807.34;;;13.08
42197;BMP280;27866;48.146;17.098;2024-03-08T17:24:12;99812.56;;;13.08
42197;BMP280;27866;48.146;17.098;2024-03-08T17:28:28;99810.31;;;13.15
42197;BMP280;27866;48.146;17.098;2024-03-08T17:32:39;99817.75;;;13.19
42197;BMP280;27866;48.146;17.098;2024-03-08T17:36:51;99820.34;;;13.19
42197;BMP280;27866;48.146;17.098;2024-03-08T17:41:03;99820.59;;;13.16
42197;BMP280;27866;48.146;17.098;2024-03-08T17:45:15;99821.31;;;13.18
42197;BMP280;27866;48.146;17.098;2024-03-08T17:49:29;99817.03;;;13.06
42197;BMP280;27866;48.146;17.098;2024-03-08T17:53:41;99818.22;;;13.03
42197;BMP280;27866;48.146;17.098;2024-03-08T17:57:53;99816.69;;;13.00
42197;BMP280;27866;48.146;17.098;2024-03-08T18:02:05;99815.28;;;13.07
42197;BMP280;27866;48.146;17.098;2024-03-08T18:06:18;99812.56;;;13.08
42197;BMP280;27866;48.146;17.098;2024-03-08T18:10:30;99811.59;;;13.09
42197;BMP280;27866;48.146;17.098;2024-03-08T18:14:42;99809.97;;;13.08
42197;BMP280;27866;48.146;17.098;2024-03-08T18:18:54;99811.13;;;13.04
42197;BMP280;27866;48.146;17.098;2024-03-08T18:23:05;99817.97;;;13.05
42197;BMP280;27866;48.146;17.098;2024-03-08T18:27:18;99818.44;;;13.00
42197;BMP280;27866;48.146;17.098;2024-03-08T18:31:30;99820.84;;;12.92
42197;BMP280;27866;48.146;17.098;2024-03-08T18:35:42;99816.09;;;12.86
42197;BMP280;27866;48.146;17.098;2024-03-08T18:39:55;99815.38;;;12.84
42197;BMP280;27866;48.146;17.098;2024-03-08T18:44:07;99814.44;;;12.85
42197;BMP280;27866;48.146;17.098;2024-03-08T18:48:19;99808.06;;;12.89
42197;BMP280;27866;48.146;17.098;2024-03-08T18:52:30;99807.00;;;12.91
42197;BMP280;27866;48.146;17.098;2024-03-08T18:56:42;99807.94;;;12.90
42197;BMP280;27866;48.146;17.098;2024-03-08T19:00:54;99809.94;;;12.87
42197;BMP280;27866;48.146;17.098;2024-03-08T19:05:05;99810.28;;;12.83
42197;BMP280;27866;48.146;17.098;2024-03-08T19:09:19;99807.09;;;12.79
42197;BMP280;27866;48.146;17.098;2024-03-08T19:13:30;99810.28;;;12.83
42197;BMP280;27866;48.146;17.098;2024-03-08T19:17:46;99806.88;;;12.82
42197;BMP280;27866;48.146;17.098;2024-03-08T19:22:01;99819.84;;;12.72
42197;BMP280;27866;48.146;17.098;2024-03-08T19:26:13;99812.72;;;12.52
42197;BMP280;27866;48.146;17.098;2024-03-08T19:30:28;99799.69;;;12.42
42197;BMP280;27866;48.146;17.098;2024-03-08T19:34:42;99801.88;;;12.25
42197;BMP280;27866;48.146;17.098;2024-03-08T19:38:53;99800.53;;;12.09
42197;BMP280;27866;48.146;17.098;2024-03-08T19:43:05;99807.81;;;12.04
42197;BMP280;27866;48.146;17.098;2024-03-08T19:47:18;99803.06;;;11.98
42197;BMP280;27866;48.146;17.098;2024-03-08T19:51:29;99786.31;;;11.91
42197;BMP280;27866;48.146;17.098;2024-03-08T19:55:41;99795.75;;;11.92
42197;BMP280;27866;48.146;17.098;2024-03-08T19:59:53;99797.63;;;11.90
42197;BMP280;27866;48.146;17.098;2024-03-08T20:04:05;99786.59;;;11.99
42197;BMP280;27866;48.146;17.098;2024-03-08T20:08:17;99788.72;;;12.05
42197;BMP280;27866;48.146;17.098;2024-03-08T20:12:30;99775.31;;;12.11
42197;BMP280;27866;48.146;17.098;2024-03-08T20:16:41;99779.09;;;12.17
42197;BMP280;27866;48.146;17.098;2024-03-08T20:20:55;99773.97;;;12.05
42197;BMP280;27866;48.146;17.098;2024-03-08T20:25:07;99770.75;;;11.91
42197;BMP280;27866;48.146;17.098;2024-03-08T20:29:24;99769.69;;;11.94
42197;BMP280;27866;48.146;17.098;2024-03-08T20:33:36;99768.63;;;11.96
42197;BMP280;27866;48.146;17.098;2024-03-08T20:37:51;99758.69;;;11.90
42197;BMP280;27866;48.146;17.098;2024-03-08T20:42:03;99764.13;;;11.88
42197;BMP280;27866;48.146;17.098;2024-03-08T20:46:16;99767.88;;;11.84
42197;BMP280;27866;48.146;17.098;2024-03-08T20:50:28;99759.59;;;11.79
42197;BMP280;27866;48.146;17.098;2024-03-08T20:54:40;99757.47;;;11.73
42197;BMP280;27866;48.146;17.098;2024-03-08T20:58:51;99747.31;;;11.70
42197;BMP280;27866;48.146;17.098;2024-03-08T21:03:11;99752.16;;;11.74
42197;BMP280;27866;48.146;17.098;2024-03-08T21:07:24;99751.56;;;11.71
42197;BMP280;27866;48.146;17.098;2024-03-08T21:11:36;99749.50;;;11.64
42197;BMP280;27866;48.146;17.098;2024-03-08T21:15:47;99746.31;;;11.60
42197;BMP280;27866;48.146;17.098;2024-03-08T21:19:59;99748.91;;;11.60
42197;BMP280;27866;48.146;17.098;2024-03-08T21:24:10;99738.53;;;11.60
42197;BMP280;27866;48.146;17.098;2024-03-08T21:28:24;99737.59;;;11.61
42197;BMP280;27866;48.146;17.098;2024-03-08T21:32:40;99739.84;;;11.66
42197;BMP280;27866;48.146;17.098;2024-03-08T21:36:53;99737.75;;;11.71
42197;BMP280;27866;48.146;17.098;2024-03-08T21:41:05;99742.38;;;11.78
42197;BMP280;27866;48.146;17.098;2024-03-08T21:45:23;99738.38;;;11.85
42197;BMP280;27866;48.146;17.098;2024-03-08T21:49:41;99735.19;;;11.81
42197;BMP280;27866;48.146;17.098;2024-03-08T21:53:55;99727.22;;;11.84
42197;BMP280;27866;48.146;17.098;2024-03-08T21:58:07;99738.66;;;11.92
42197;BMP280;27866;48.146;17.098;2024-03-08T22:02:19;99733.00;;;11.88
42197;BMP280;27866;48.146;17.098;2024-03-08T22:06:30;99727.66;;;11.78
42197;BMP280;27866;48.146;17.098;2024-03-08T22:10:42;99715.78;;;11.64
42197;BMP280;27866;48.146;17.098;2024-03-08T22:14:55;99718.34;;;11.53
42197;BMP280;27866;48.146;17.098;2024-03-08T22:19:07;99717.16;;;11.46
42197;BMP280;27866;48.146;17.098;2024-03-08T22:23:18;99714.31;;;11.49
42197;BMP280;27866;48.146;17.098;2024-03-08T22:27:33;99710.88;;;11.49
42197;BMP280;27866;48.146;17.098;2024-03-08T22:31:44;99712.25;;;11.54
42197;BMP280;27866;48.146;17.098;2024-03-08T22:35:56;99707.28;;;11.62
42197;BMP280;27866;48.146;17.098;2024-03-08T22:40:10;99718.50;;;11.62
42197;BMP280;27866;48.146;17.098;2024-03-08T22:44:26;99720.69;;;11.56
42197;BMP280;27866;48.146;17.098;2024-03-08T22:48:38;99735.81;;;11.62
42197;BMP280;27866;48.146;17.098;2024-03-08T22:52:52;99736.00;;;11.71
42197;BMP280;27866;48.146;17.098;2024-03-08T22:57:03;99732.28;;;11.86
42197;BMP280;27866;48.146;17.098;2024-03-08T23:01:19;99718.31;;;11.76
42197;BMP280;27866;48.146;17.098;2024-03-08T23:05:34;99714.03;;;11.64
42197;BMP280;27866;48.146;17.098;2024-03-08T23:09:45;99703.44;;;11.67
42197;BMP280;27866;48.146;17.098;2024-03-08T23:13:58;99691.41;;;11.66
42197;BMP280;27866;48.146;17.098;2024-03-08T23:18:10;99698.16;;;11.46
42197;BMP280;27866;48.146;17.098;2024-03-08T23:22:22;99698.31;;;11.32
42197;BMP280;27866;48.146;17.098;2024-03-08T23:26:34;99690.69;;;11.19
42197;BMP280;27866;48.146;17.098;2024-03-08T23:30:46;99690.91;;;11.16
42197;BMP280;27866;48.146;17.098;2024-03-08T23:34:58;99700.13;;;11.20
42197;BMP280;27866;48.146;17.098;2024-03-08T23:39:10;99714.00;;;11.19
42197;BMP280;27866;48.146;17.098;2024-03-08T23:43:23;99703.88;;;11.16
42197;BMP280;27866;48.146;17.098;2024-03-08T23:47:37;99706.34;;;11.17
42197;BMP280;27866;48.146;17.098;2024-03-08T23:51:49;99709.78;;;11.18
42197;BMP280;27866;48.146;17.098;2024-03-08T23:56:00;99703.94;;;11.14
